sensor_id;sensor_type;location;lat;lon;timestamp;temperature;humidity
58983;DHT22;44771;49.982;8.560;2022-12-29T00:01:37;10.30;99.90
58983;DHT22;44771;49.982;8.560;2022-12-29T00:06:40;10.30;99.90
58983;DHT22;44771;49.982;8.560;2022-12-29T00:11:42;10.30;99.90
58983;DHT22;44771;49.982;8.560;2022-12-29T00:16:45;10.30;99.90
58983;DHT22;44771;49.982;8.560;2022-12-29T00:21:48;10.30;99.90
58983;DHT22;44771;49.982;8.560;2022-12-29T00:26:55;10.30;99.90
58983;DHT22;44771;49.982;8.560;2022-12-29T00:31:59;10.30;99.90
58983;DHT22;44771;49.982;8.560;2022-12-29T00:37:02;10.20;99.90
58983;DHT22;44771;49.982;8.560;2022-12-29T00:42:04;10.20;99.90
58983;DHT22;44771;49.982;8.560;2022-12-29T00:47:06;10.20;99.90
58983;DHT22;44771;49.982;8.560;2022-12-29T00:52:21;10.40;99.90
58983;DHT22;44771;49.982;8.560;2022-12-29T00:57:25;10.50;99.90
58983;DHT22;44771;49.982;8.560;2022-12-29T01:02:28;10.40;99.90
58983;DHT22;44771;49.982;8.560;2022-12-29T01:07:31;10.40;99.90
58983;DHT22;44771;49.982;8.560;2022-12-29T01:12:33;10.50;99.90
58983;DHT22;44771;49.982;8.560;2022-12-29T01:17:35;10.50;99.90
58983;DHT22;44771;49.982;8.560;2022-12-29T01:22:38;10.50;99.90
58983;DHT22;44771;49.982;8.560;2022-12-29T01:27:40;10.50;99.90
58983;DHT22;44771;49.982;8.560;2022-12-29T01:32:42;10.50;99.90
58983;DHT22;44771;49.982;8.560;2022-12-29T01:37:45;10.50;99.90
58983;DHT22;44771;49.982;8.560;2022-12-29T01:42:47;10.40;99.90
58983;DHT22;44771;49.982;8.560;2022-12-29T01:47:52;10.40;99.90
58983;DHT22;44771;49.982;8.560;2022-12-29T01:52:58;10.50;99.90
58983;DHT22;44771;49.982;8.560;2022-12-29T01:58:04;10.50;99.90
58983;DHT22;44771;49.982;8.560;2022-12-29T02:03:06;10.50;99.90
58983;DHT22;44771;49.982;8.560;2022-12-29T02:08:11;10.60;99.90
58983;DHT22;44771;49.982;8.560;2022-12-29T02:13:15;10.60;99.90
58983;DHT22;44771;49.982;8.560;2022-12-29T02:18:26;10.60;99.90
58983;DHT22;44771;49.982;8.560;2022-12-29T02:29:37;10.70;99.90
58983;DHT22;44771;49.982;8.560;2022-12-29T02:34:49;10.70;99.90
58983;DHT22;44771;49.982;8.560;2022-12-29T02:39:59;10.70;99.90
58983;DHT22;44771;49.982;8.560;2022-12-29T02:45:05;10.80;99.90
58983;DHT22;44771;49.982;8.560;2022-12-29T02:50:14;10.70;99.90
58983;DHT22;44771;49.982;8.560;2022-12-29T02:55:19;10.70;99.90
58983;DHT22;44771;49.982;8.560;2022-12-29T03:00:20;10.70;99.90
58983;DHT22;44771;49.982;8.560;2022-12-29T03:05:31;10.70;99.90
58983;DHT22;44771;49.982;8.560;2022-12-29T03:10:46;10.80;99.90
58983;DHT22;44771;49.982;8.560;2022-12-29T03:15:55;10.80;99.90
58983;DHT22;44771;49.982;8.560;2022-12-29T03:21:03;10.70;99.90
58983;DHT22;44771;49.982;8.560;2022-12-29T03:26:08;10.80;99.90
58983;DHT22;44771;49.982;8.560;2022-12-29T03:31:12;10.90;99.90
58983;DHT22;44771;49.982;8.560;2022-12-29T03:36:23;10.90;99.90
58983;DHT22;44771;49.982;8.560;2022-12-29T03:41:32;10.80;99.90
58983;DHT22;44771;49.982;8.560;2022-12-29T03:46:35;10.80;99.90
58983;DHT22;44771;49.982;8.560;2022-12-29T03:51:38;10.90;99.90
58983;DHT22;44771;49.982;8.560;2022-12-29T03:56:40;10.90;99.90
58983;DHT22;44771;49.982;8.560;2022-12-29T04:01:41;11.00;99.90
58983;DHT22;44771;49.982;8.560;2022-12-29T04:06:45;11.10;99.90
58983;DHT22;44771;49.982;8.560;2022-12-29T04:11:47;11.10;99.90
58983;DHT22;44771;49.982;8.560;2022-12-29T04:16:48;11.20;99.90
58983;DHT22;44771;49.982;8.560;2022-12-29T04:21:51;11.30;99.90
58983;DHT22;44771;49.982;8.560;2022-12-29T04:26:53;11.30;99.90
58983;DHT22;44771;49.982;8.560;2022-12-29T04:31:55;11.40;99.90
58983;DHT22;44771;49.982;8.560;2022-12-29T04:36:58;11.50;99.90
58983;DHT22;44771;49.982;8.560;2022-12-29T04:42:00;11.40;99.90
58983;DHT22;44771;49.982;8.560;2022-12-29T04:47:02;11.50;99.90
58983;DHT22;44771;49.982;8.560;2022-12-29T04:52:05;11.50;99.90
58983;DHT22;44771;49.982;8.560;2022-12-29T04:57:07;11.60;99.90
58983;DHT22;44771;49.982;8.560;2022-12-29T05:02:08;11.50;99.90
58983;DHT22;44771;49.982;8.560;2022-12-29T05:07:12;11.40;99.90
58983;DHT22;44771;49.982;8.560;2022-12-29T05:12:13;11.40;99.90
58983;DHT22;44771;49.982;8.560;2022-12-29T05:17:15;11.40;99.90
58983;DHT22;44771;49.982;8.560;2022-12-29T05:22:19;11.50;99.90
58983;DHT22;44771;49.982;8.560;2022-12-29T05:27:21;11.60;99.90
58983;DHT22;44771;49.982;8.560;2022-12-29T05:32:22;11.60;99.90
58983;DHT22;44771;49.982;8.560;2022-12-29T05:37:25;11.60;99.90
58983;DHT22;44771;49.982;8.560;2022-12-29T05:42:27;11.60;99.90
58983;DHT22;44771;49.982;8.560;2022-12-29T05:47:29;11.60;99.90
58983;DHT22;44771;49.982;8.560;2022-12-29T05:52:32;11.60;99.90
58983;DHT22;44771;49.982;8.560;2022-12-29T05:57:34;11.70;99.90
58983;DHT22;44771;49.982;8.560;2022-12-29T06:02:36;11.70;99.90
58983;DHT22;44771;49.982;8.560;2022-12-29T06:07:39;11.80;99.90
58983;DHT22;44771;49.982;8.560;2022-12-29T06:12:41;11.80;99.90
58983;DHT22;44771;49.982;8.560;2022-12-29T06:17:43;11.80;99.90
58983;DHT22;44771;49.982;8.560;2022-12-29T06:22:46;11.90;99.90
58983;DHT22;44771;49.982;8.560;2022-12-29T06:27:48;11.90;99.90
58983;DHT22;44771;49.982;8.560;2022-12-29T06:32:49;11.90;99.90
58983;DHT22;44771;49.982;8.560;2022-12-29T06:37:53;11.90;99.90
58983;DHT22;44771;49.982;8.560;2022-12-29T06:42:54;11.90;99.90
58983;DHT22;44771;49.982;8.560;2022-12-29T06:47:56;11.90;99.90
58983;DHT22;44771;49.982;8.560;2022-12-29T06:52:59;11.80;99.90
58983;DHT22;44771;49.982;8.560;2022-12-29T06:58:01;11.80;99.90
58983;DHT22;44771;49.982;8.560;2022-12-29T07:03:03;11.80;99.90
58983;DHT22;44771;49.982;8.560;2022-12-29T07:08:06;11.80;99.90
58983;DHT22;44771;49.982;8.560;2022-12-29T07:13:08;11.80;99.90
58983;DHT22;44771;49.982;8.560;2022-12-29T07:18:10;11.80;99.90
58983;DHT22;44771;49.982;8.560;2022-12-29T07:23:13;11.80;99.90
58983;DHT22;44771;49.982;8.560;2022-12-29T07:28:15;11.60;99.90
58983;DHT22;44771;49.982;8.560;2022-12-29T07:33:17;11.60;99.90
58983;DHT22;44771;49.982;8.560;2022-12-29T07:38:21;11.70;99.90
58983;DHT22;44771;49.982;8.560;2022-12-29T07:43:22;11.80;99.90
58983;DHT22;44771;49.982;8.560;2022-12-29T07:48:24;11.80;99.90
58983;DHT22;44771;49.982;8.560;2022-12-29T07:53:27;11.90;99.90
58983;DHT22;44771;49.982;8.560;2022-12-29T07:58:29;11.90;99.90
58983;DHT22;44771;49.982;8.560;2022-12-29T08:03:31;11.90;99.90
58983;DHT22;44771;49.982;8.560;2022-12-29T08:08:34;11.80;99.90
58983;DHT22;44771;49.982;8.560;2022-12-29T08:13:35;11.80;99.90
58983;DHT22;44771;49.982;8.560;2022-12-29T08:18:37;11.80;99.90
58983;DHT22;44771;49.982;8.560;2022-12-29T08:23:40;11.80;99.90
58983;DHT22;44771;49.982;8.560;2022-12-29T08:28:42;11.80;99.90
58983;DHT22;44771;49.982;8.560;2022-12-29T08:33:44;11.90;99.90
58983;DHT22;44771;49.982;8.560;2022-12-29T08:38:49;12.00;99.90
58983;DHT22;44771;49.982;8.560;2022-12-29T08:43:50;12.00;99.90
58983;DHT22;44771;49.982;8.560;2022-12-29T08:48:53;12.10;99.90
58983;DHT22;44771;49.982;8.560;2022-12-29T08:53:56;12.10;99.90
58983;DHT22;44771;49.982;8.560;2022-12-29T08:58:58;12.00;99.90
58983;DHT22;44771;49.982;8.560;2022-12-29T09:04:00;12.10;99.90
58983;DHT22;44771;49.982;8.560;2022-12-29T09:09:17;12.20;99.90
58983;DHT22;44771;49.982;8.560;2022-12-29T09:14:19;12.10;99.90
58983;DHT22;44771;49.982;8.560;2022-12-29T09:19:21;12.10;99.90
58983;DHT22;44771;49.982;8.560;2022-12-29T09:24:24;12.00;99.90
58983;DHT22;44771;49.982;8.560;2022-12-29T09:29:26;11.70;99.90
58983;DHT22;44771;49.982;8.560;2022-12-29T09:34:28;11.50;99.90
58983;DHT22;44771;49.982;8.560;2022-12-29T09:39:31;11.30;99.90
58983;DHT22;44771;49.982;8.560;2022-12-29T09:44:48;11.20;99.90
58983;DHT22;44771;49.982;8.560;2022-12-29T09:49:55;11.10;99.90
58983;DHT22;44771;49.982;8.560;2022-12-29T09:55:02;10.60;99.90
58983;DHT22;44771;49.982;8.560;2022-12-29T10:00:14;10.40;99.90
58983;DHT22;44771;49.982;8.560;2022-12-29T10:05:22;10.20;99.90
58983;DHT22;44771;49.982;8.560;2022-12-29T10:10:35;9.90;99.90
58983;DHT22;44771;49.982;8.560;2022-12-29T10:15:48;9.70;99.90
58983;DHT22;44771;49.982;8.560;2022-12-29T10:20:55;9.60;99.90
58983;DHT22;44771;49.982;8.560;2022-12-29T10:26:01;9.50;99.90
58983;DHT22;44771;49.982;8.560;2022-12-29T10:31:06;9.40;99.90
58983;DHT22;44771;49.982;8.560;2022-12-29T10:36:14;9.30;99.90
58983;DHT22;44771;49.982;8.560;2022-12-29T10:41:21;9.30;99.90
58983;DHT22;44771;49.982;8.560;2022-12-29T10:46:28;9.30;99.90
58983;DHT22;44771;49.982;8.560;2022-12-29T10:51:38;9.30;99.90
58983;DHT22;44771;49.982;8.560;2022-12-29T10:56:44;9.30;99.90
58983;DHT22;44771;49.982;8.560;2022-12-29T11:01:55;9.40;99.90
58983;DHT22;44771;49.982;8.560;2022-12-29T11:06:59;9.50;99.90
58983;DHT22;44771;49.982;8.560;2022-12-29T11:12:18;9.60;99.90
58983;DHT22;44771;49.982;8.560;2022-12-29T11:17:20;9.80;99.90
58983;DHT22;44771;49.982;8.560;2022-12-29T11:22:24;9.80;99.90
58983;DHT22;44771;49.982;8.560;2022-12-29T11:27:27;9.90;99.90
58983;DHT22;44771;49.982;8.560;2022-12-29T11:32:29;10.10;99.90
58983;DHT22;44771;49.982;8.560;2022-12-29T11:37:36;10.40;99.90
58983;DHT22;44771;49.982;8.560;2022-12-29T11:42:46;10.50;99.90
58983;DHT22;44771;49.982;8.560;2022-12-29T11:47:52;10.60;99.90
58983;DHT22;44771;49.982;8.560;2022-12-29T11:52:59;10.60;99.90
58983;DHT22;44771;49.982;8.560;2022-12-29T11:58:04;10.80;99.90
58983;DHT22;44771;49.982;8.560;2022-12-29T12:03:12;10.70;99.90
58983;DHT22;44771;49.982;8.560;2022-12-29T12:08:19;10.70;99.90
58983;DHT22;44771;49.982;8.560;2022-12-29T12:13:31;10.70;99.90
58983;DHT22;44771;49.982;8.560;2022-12-29T12:18:40;10.80;99.90
58983;DHT22;44771;49.982;8.560;2022-12-29T12:29:24;10.90;99.90
58983;DHT22;44771;49.982;8.560;2022-12-29T12:34:37;10.90;99.90
58983;DHT22;44771;49.982;8.560;2022-12-29T12:39:42;10.80;99.90
58983;DHT22;44771;49.982;8.560;2022-12-29T12:44:53;10.80;99.90
58983;DHT22;44771;49.982;8.560;2022-12-29T12:50:27;10.80;99.90
58983;DHT22;44771;49.982;8.560;2022-12-29T12:55:46;11.00;99.90
58983;DHT22;44771;49.982;8.560;2022-12-29T13:01:01;11.00;99.90
58983;DHT22;44771;49.982;8.560;2022-12-29T13:06:18;11.00;99.90
58983;DHT22;44771;49.982;8.560;2022-12-29T13:11:26;11.00;99.90
58983;DHT22;44771;49.982;8.560;2022-12-29T13:16:37;11.10;99.90
58983;DHT22;44771;49.982;8.560;2022-12-29T13:21:51;11.20;99.90
58983;DHT22;44771;49.982;8.560;2022-12-29T13:27:11;11.60;99.90
58983;DHT22;44771;49.982;8.560;2022-12-29T13:32:26;11.70;99.90
58983;DHT22;44771;49.982;8.560;2022-12-29T13:37:32;11.60;99.90
58983;DHT22;44771;49.982;8.560;2022-12-29T13:42:36;11.50;99.90
58983;DHT22;44771;49.982;8.560;2022-12-29T13:47:42;11.40;99.90
58983;DHT22;44771;49.982;8.560;2022-12-29T13:52:50;11.30;99.90
58983;DHT22;44771;49.982;8.560;2022-12-29T13:57:58;11.20;99.90
58983;DHT22;44771;49.982;8.560;2022-12-29T14:03:20;11.10;99.90
58983;DHT22;44771;49.982;8.560;2022-12-29T14:08:34;11.10;99.90
58983;DHT22;44771;49.982;8.560;2022-12-29T14:13:38;11.10;99.90
58983;DHT22;44771;49.982;8.560;2022-12-29T14:18:43;11.00;99.90
58983;DHT22;44771;49.982;8.560;2022-12-29T14:23:47;11.10;99.90
58983;DHT22;44771;49.982;8.560;2022-12-29T14:40:09;11.20;99.90
58983;DHT22;44771;49.982;8.560;2022-12-29T14:45:33;11.00;99.90
58983;DHT22;44771;49.982;8.560;2022-12-29T14:50:38;10.90;99.90
58983;DHT22;44771;49.982;8.560;2022-12-29T14:55:44;11.10;99.90
58983;DHT22;44771;49.982;8.560;2022-12-29T15:00:52;11.10;99.90
58983;DHT22;44771;49.982;8.560;2022-12-29T15:05:55;11.10;99.90
58983;DHT22;44771;49.982;8.560;2022-12-29T15:11:03;10.90;99.90
58983;DHT22;44771;49.982;8.560;2022-12-29T15:16:21;10.70;99.90
58983;DHT22;44771;49.982;8.560;2022-12-29T15:21:26;10.60;99.90
58983;DHT22;44771;49.982;8.560;2022-12-29T15:26:39;10.50;99.90
58983;DHT22;44771;49.982;8.560;2022-12-29T15:31:46;10.40;99.90
58983;DHT22;44771;49.982;8.560;2022-12-29T15:36:50;10.10;99.90
58983;DHT22;44771;49.982;8.560;2022-12-29T15:41:56;10.10;99.90
58983;DHT22;44771;49.982;8.560;2022-12-29T15:47:01;10.10;99.90
58983;DHT22;44771;49.982;8.560;2022-12-29T15:52:06;10.10;99.90
58983;DHT22;44771;49.982;8.560;2022-12-29T15:57:21;10.10;99.90
58983;DHT22;44771;49.982;8.560;2022-12-29T16:02:24;10.00;99.90
58983;DHT22;44771;49.982;8.560;2022-12-29T16:07:28;10.10;99.90
58983;DHT22;44771;49.982;8.560;2022-12-29T16:12:38;10.10;99.90
58983;DHT22;44771;49.982;8.560;2022-12-29T16:17:50;10.00;99.90
58983;DHT22;44771;49.982;8.560;2022-12-29T16:22:56;9.80;99.90
58983;DHT22;44771;49.982;8.560;2022-12-29T16:28:00;9.80;99.90
58983;DHT22;44771;49.982;8.560;2022-12-29T16:33:06;9.60;99.90
58983;DHT22;44771;49.982;8.560;2022-12-29T16:38:22;9.60;99.90
58983;DHT22;44771;49.982;8.560;2022-12-29T16:43:33;9.50;99.90
58983;DHT22;44771;49.982;8.560;2022-12-29T16:49:18;9.50;99.90
58983;DHT22;44771;49.982;8.560;2022-12-29T16:54:54;9.40;99.90
58983;DHT22;44771;49.982;8.560;2022-12-29T17:00:04;9.20;99.90
58983;DHT22;44771;49.982;8.560;2022-12-29T17:05:12;9.10;99.90
58983;DHT22;44771;49.982;8.560;2022-12-29T17:10:14;9.10;99.90
58983;DHT22;44771;49.982;8.560;2022-12-29T17:15:23;9.10;99.90
58983;DHT22;44771;49.982;8.560;2022-12-29T17:20:31;9.10;99.90
58983;DHT22;44771;49.982;8.560;2022-12-29T17:25:36;9.10;99.90
58983;DHT22;44771;49.982;8.560;2022-12-29T17:31:01;9.00;99.90
58983;DHT22;44771;49.982;8.560;2022-12-29T17:36:27;9.10;99.90
58983;DHT22;44771;49.982;8.560;2022-12-29T17:41:44;9.10;99.90
58983;DHT22;44771;49.982;8.560;2022-12-29T18:20:32;9.00;99.90
58983;DHT22;44771;49.982;8.560;2022-12-29T18:31:54;9.10;99.90
58983;DHT22;44771;49.982;8.560;2022-12-29T18:54:04;8.90;99.90
58983;DHT22;44771;49.982;8.560;2022-12-29T19:05:26;8.90;99.90
58983;DHT22;44771;49.982;8.560;2022-12-29T19:10:50;8.80;99.90
58983;DHT22;44771;49.982;8.560;2022-12-29T19:17:07;8.70;99.90
58983;DHT22;44771;49.982;8.560;2022-12-29T19:22:08;8.80;99.90
58983;DHT22;44771;49.982;8.560;2022-12-29T19:32:39;8.50;99.90
58983;DHT22;44771;49.982;8.560;2022-12-29T19:37:41;8.50;99.90
58983;DHT22;44771;49.982;8.560;2022-12-29T19:42:43;8.50;99.90
58983;DHT22;44771;49.982;8.560;2022-12-29T19:47:47;8.40;99.90
58983;DHT22;44771;49.982;8.560;2022-12-29T19:52:48;8.40;99.90
58983;DHT22;44771;49.982;8.560;2022-12-29T19:58:22;8.40;99.90
58983;DHT22;44771;49.982;8.560;2022-12-29T20:03:25;8.50;99.90
58983;DHT22;44771;49.982;8.560;2022-12-29T20:08:27;8.50;99.90
58983;DHT22;44771;49.982;8.560;2022-12-29T20:13:45;8.40;99.90
58983;DHT22;44771;49.982;8.560;2022-12-29T20:18:49;8.20;99.90
58983;DHT22;44771;49.982;8.560;2022-12-29T20:23:52;8.10;99.90
58983;DHT22;44771;49.982;8.560;2022-12-29T20:28:55;8.20;99.90
58983;DHT22;44771;49.982;8.560;2022-12-29T20:34:02;8.20;99.90
58983;DHT22;44771;49.982;8.560;2022-12-29T20:55:39;8.20;99.90
58983;DHT22;44771;49.982;8.560;2022-12-29T21:07:05;8.50;99.90
58983;DHT22;44771;49.982;8.560;2022-12-29T21:38:51;7.70;99.90
58983;DHT22;44771;49.982;8.560;2022-12-29T21:43:54;7.90;99.90
58983;DHT22;44771;49.982;8.560;2022-12-29T21:49:11;7.90;99.90
58983;DHT22;44771;49.982;8.560;2022-12-29T21:54:19;7.80;99.90
58983;DHT22;44771;49.982;8.560;2022-12-29T21:59:22;7.70;99.90
58983;DHT22;44771;49.982;8.560;2022-12-29T22:04:37;7.60;99.90
58983;DHT22;44771;49.982;8.560;2022-12-29T22:09:45;7.50;99.90
58983;DHT22;44771;49.982;8.560;2022-12-29T22:15:08;7.50;99.90
58983;DHT22;44771;49.982;8.560;2022-12-29T22:20:23;7.50;99.90
58983;DHT22;44771;49.982;8.560;2022-12-29T22:25:32;7.50;99.90
58983;DHT22;44771;49.982;8.560;2022-12-29T22:30:53;7.60;99.90
58983;DHT22;44771;49.982;8.560;2022-12-29T22:36:16;7.60;99.90
58983;DHT22;44771;49.982;8.560;2022-12-29T22:46:55;7.40;99.90
58983;DHT22;44771;49.982;8.560;2022-12-29T22:52:00;7.40;99.90
58983;DHT22;44771;49.982;8.560;2022-12-29T22:57:03;7.40;99.90
58983;DHT22;44771;49.982;8.560;2022-12-29T23:02:06;7.30;99.90
58983;DHT22;44771;49.982;8.560;2022-12-29T23:07:08;7.20;99.90
58983;DHT22;44771;49.982;8.560;2022-12-29T23:12:12;7.30;99.90
58983;DHT22;44771;49.982;8.560;2022-12-29T23:17:17;7.30;99.90
58983;DHT22;44771;49.982;8.560;2022-12-29T23:22:22;7.30;99.90
58983;DHT22;44771;49.982;8.560;2022-12-29T23:27:33;7.40;99.90
58983;DHT22;44771;49.982;8.560;2022-12-29T23:32:35;7.20;99.90
58983;DHT22;44771;49.982;8.560;2022-12-29T23:37:43;7.20;99.90
58983;DHT22;44771;49.982;8.560;2022-12-29T23:43:21;7.10;99.90
58983;DHT22;44771;49.982;8.560;2022-12-29T23:48:13;7.10;99.90
58983;DHT22;44771;49.982;8.560;2022-12-29T23:53:15;7.30;99.90
58983;DHT22;44771;49.982;8.560;2022-12-29T23:58:18;7.20;99.90
